sensor_id;sensor_type;location;lat;lon;timestamp;pressure;altitude;pressure_sealevel;temperature;humidity
68199;BME280;55021;51.554;17.044;2023-04-26T00:13:02;100080.28;;;4.98;66.20
68199;BME280;55021;51.554;17.044;2023-04-26T00:28:16;100090.34;;;5.06;66.69
68199;BME280;55021;51.554;17.044;2023-04-26T00:58:40;100097.50;;;4.85;67.15
68199;BME280;55021;51.554;17.044;2023-04-26T01:13:43;100154.50;;;4.87;68.86
68199;BME280;55021;51.554;17.044;2023-04-26T01:28:45;100160.75;;;4.76;69.53
68199;BME280;55021;51.554;17.044;2023-04-26T01:44:09;100115.63;;;4.27;69.57
68199;BME280;55021;51.554;17.044;2023-04-26T01:59:30;100135.22;;;4.28;69.79
68199;BME280;55021;51.554;17.044;2023-04-26T02:14:38;100140.34;;;4.09;69.99
68199;BME280;55021;51.554;17.044;2023-04-26T02:29:40;100132.66;;;4.15;69.81
68199;BME280;55021;51.554;17.044;2023-04-26T02:44:43;100177.84;;;4.31;70.38
68199;BME280;55021;51.554;17.044;2023-04-26T02:59:46;100145.06;;;4.05;71.03
68199;BME280;55021;51.554;17.044;2023-04-26T03:14:57;100188.13;;;3.91;72.84
68199;BME280;55021;51.554;17.044;2023-04-26T03:30:20;100149.47;;;3.49;73.43
68199;BME280;55021;51.554;17.044;2023-04-26T03:45:38;100304.63;;;4.19;74.10
68199;BME280;55021;51.554;17.044;2023-04-26T04:00:45;100200.81;;;4.11;71.94
68199;BME280;55021;51.554;17.044;2023-04-26T04:15:52;100240.88;;;4.35;71.55
68199;BME280;55021;51.554;17.044;2023-04-26T04:46:52;100284.44;;;4.26;73.56
68199;BME280;55021;51.554;17.044;2023-04-26T05:01:55;100348.34;;;4.87;73.93
68199;BME280;55021;51.554;17.044;2023-04-26T05:16:58;100330.78;;;4.72;74.53
68199;BME280;55021;51.554;17.044;2023-04-26T05:32:00;100345.91;;;5.06;73.34
68199;BME280;55021;51.554;17.044;2023-04-26T05:47:03;100343.84;;;5.10;72.20
68199;BME280;55021;51.554;17.044;2023-04-26T06:02:06;100271.44;;;5.10;71.61
68199;BME280;55021;51.554;17.044;2023-04-26T06:17:08;100348.34;;;5.86;70.21
68199;BME280;55021;51.554;17.044;2023-04-26T06:32:11;100376.19;;;6.48;67.60
68199;BME280;55021;51.554;17.044;2023-04-26T06:47:16;100313.66;;;6.46;68.74
68199;BME280;55021;51.554;17.044;2023-04-26T07:02:18;100396.59;;;7.53;67.51
68199;BME280;55021;51.554;17.044;2023-04-26T07:17:21;100378.53;;;7.34;64.06
68199;BME280;55021;51.554;17.044;2023-04-26T07:32:23;100348.94;;;7.43;59.54
68199;BME280;55021;51.554;17.044;2023-04-26T07:47:26;100389.53;;;8.30;58.01
68199;BME280;55021;51.554;17.044;2023-04-26T08:02:28;100427.28;;;8.49;58.01
68199;BME280;55021;51.554;17.044;2023-04-26T08:17:31;100419.44;;;9.50;54.04
68199;BME280;55021;51.554;17.044;2023-04-26T08:32:38;100413.59;;;9.08;55.47
68199;BME280;55021;51.554;17.044;2023-04-26T08:47:43;100445.19;;;8.59;54.13
68199;BME280;55021;51.554;17.044;2023-04-26T09:02:48;100425.50;;;9.24;49.88
68199;BME280;55021;51.554;17.044;2023-04-26T09:17:51;100399.06;;;9.28;50.64
68199;BME280;55021;51.554;17.044;2023-04-26T09:32:55;100432.91;;;10.76;48.33
68199;BME280;55021;51.554;17.044;2023-04-26T10:03:27;100456.97;;;9.43;49.02
68199;BME280;55021;51.554;17.044;2023-04-26T10:18:30;100454.19;;;9.72;48.50
68199;BME280;55021;51.554;17.044;2023-04-26T10:33:33;100426.06;;;9.28;50.11
68199;BME280;55021;51.554;17.044;2023-04-26T10:48:35;100354.06;;;9.46;48.20
68199;BME280;55021;51.554;17.044;2023-04-26T11:03:42;100421.81;;;9.90;47.77
68199;BME280;55021;51.554;17.044;2023-04-26T11:18:45;100423.53;;;9.54;47.18
68199;BME280;55021;51.554;17.044;2023-04-26T11:33:48;100403.19;;;10.31;47.03
68199;BME280;55021;51.554;17.044;2023-04-26T11:48:51;100446.78;;;9.74;46.90
68199;BME280;55021;51.554;17.044;2023-04-26T12:03:56;100385.00;;;9.34;47.16
68199;BME280;55021;51.554;17.044;2023-04-26T12:18:58;100420.41;;;10.30;47.34
68199;BME280;55021;51.554;17.044;2023-04-26T12:34:01;100441.91;;;10.32;45.32
68199;BME280;55021;51.554;17.044;2023-04-26T12:49:04;100407.63;;;10.68;43.60
68199;BME280;55021;51.554;17.044;2023-04-26T13:04:06;100452.53;;;10.78;45.01
68199;BME280;55021;51.554;17.044;2023-04-26T13:19:09;100445.41;;;11.21;41.14
68199;BME280;55021;51.554;17.044;2023-04-26T13:34:11;100439.88;;;10.34;44.04
68199;BME280;55021;51.554;17.044;2023-04-26T13:49:14;100493.72;;;11.25;42.87
68199;BME280;55021;51.554;17.044;2023-04-26T14:04:16;100483.47;;;10.76;44.14
68199;BME280;55021;51.554;17.044;2023-04-26T14:19:19;100512.81;;;11.24;41.67
68199;BME280;55021;51.554;17.044;2023-04-26T14:34:21;100449.78;;;10.96;42.57
68199;BME280;55021;51.554;17.044;2023-04-26T14:49:24;100511.91;;;10.80;43.43
68199;BME280;55021;51.554;17.044;2023-04-26T15:04:26;100489.03;;;10.02;45.09
68199;BME280;55021;51.554;17.044;2023-04-26T15:19:29;100551.03;;;10.40;46.14
68199;BME280;55021;51.554;17.044;2023-04-26T15:34:37;100556.56;;;10.49;48.50
68199;BME280;55021;51.554;17.044;2023-04-26T15:49:40;100548.31;;;10.13;47.22
68199;BME280;55021;51.554;17.044;2023-04-26T16:04:48;100557.19;;;10.60;46.51
68199;BME280;55021;51.554;17.044;2023-04-26T16:19:53;100506.91;;;10.13;49.26
68199;BME280;55021;51.554;17.044;2023-04-26T16:34:56;100501.44;;;9.49;47.40
68199;BME280;55021;51.554;17.044;2023-04-26T16:50:01;100576.91;;;10.16;47.76
68199;BME280;55021;51.554;17.044;2023-04-26T17:05:04;100485.41;;;10.11;47.19
68199;BME280;55021;51.554;17.044;2023-04-26T17:20:07;100582.19;;;10.08;49.04
68199;BME280;55021;51.554;17.044;2023-04-26T17:35:10;100586.72;;;9.51;50.00
68199;BME280;55021;51.554;17.044;2023-04-26T17:50:13;100595.28;;;9.47;50.54
68199;BME280;55021;51.554;17.044;2023-04-26T18:05:15;100538.19;;;9.22;50.68
68199;BME280;55021;51.554;17.044;2023-04-26T18:20:17;100569.28;;;8.98;51.78
68199;BME280;55021;51.554;17.044;2023-04-26T18:35:20;100642.66;;;8.73;52.84
68199;BME280;55021;51.554;17.044;2023-04-26T18:50:22;100654.81;;;8.37;54.26
68199;BME280;55021;51.554;17.044;2023-04-26T19:05:24;100671.13;;;8.05;54.92
68199;BME280;55021;51.554;17.044;2023-04-26T19:20:27;100601.97;;;6.91;57.75
68199;BME280;55021;51.554;17.044;2023-04-26T19:35:30;100706.88;;;7.23;59.13
68199;BME280;55021;51.554;17.044;2023-04-26T19:50:37;100691.69;;;6.79;60.38
68199;BME280;55021;51.554;17.044;2023-04-26T20:05:39;100682.94;;;6.55;61.03
68199;BME280;55021;51.554;17.044;2023-04-26T20:20:41;100688.78;;;6.60;61.35
68199;BME280;55021;51.554;17.044;2023-04-26T20:35:44;100686.09;;;6.60;60.55
68199;BME280;55021;51.554;17.044;2023-04-26T20:50:47;100675.34;;;6.38;61.78
68199;BME280;55021;51.554;17.044;2023-04-26T21:05:49;100678.44;;;5.98;63.40
68199;BME280;55021;51.554;17.044;2023-04-26T21:20:52;100637.13;;;5.55;64.20
68199;BME280;55021;51.554;17.044;2023-04-26T21:35:54;100662.84;;;5.57;64.29
68199;BME280;55021;51.554;17.044;2023-04-26T21:50:57;100742.13;;;5.85;64.87
68199;BME280;55021;51.554;17.044;2023-04-26T22:05:59;100761.72;;;6.09;64.40
68199;BME280;55021;51.554;17.044;2023-04-26T22:21:02;100791.72;;;5.92;65.19
68199;BME280;55021;51.554;17.044;2023-04-26T22:36:05;100794.81;;;5.75;66.07
68199;BME280;55021;51.554;17.044;2023-04-26T22:51:08;100794.06;;;5.49;66.97
68199;BME280;55021;51.554;17.044;2023-04-26T23:06:10;100796.50;;;5.29;66.81
68199;BME280;55021;51.554;17.044;2023-04-26T23:21:16;100827.69;;;5.42;67.17
68199;BME280;55021;51.554;17.044;2023-04-26T23:36:19;100816.53;;;4.24;69.87
68199;BME280;55021;51.554;17.044;2023-04-26T23:51:22;100794.91;;;2.52;77.19
